Map

Track Data

SID SEASON NUMBER BASIN SUBBASIN NAME ISO_TIME NATURE LAT LON WMO_WIND WMO_PRES WMO_AGENCY TRACK_TYPE DIST2LAND LANDFALL IFLAG USA_AGENCY USA_ATCF_ID USA_LAT USA_LON USA_RECORD USA_STATUS USA_WIND USA_PRES USA_SSHS USA_R34_NE USA_R34_SE USA_R34_SW USA_R34_NW USA_R50_NE USA_R50_SE USA_R50_SW USA_R50_NW USA_R64_NE USA_R64_SE USA_R64_SW USA_R64_NW USA_POCI USA_ROCI USA_RMW USA_EYE TOKYO_LAT TOKYO_LON TOKYO_GRADE TOKYO_WIND TOKYO_PRES TOKYO_R50_DIR TOKYO_R50_LONG TOKYO_R50_SHORT TOKYO_R30_DIR TOKYO_R30_LONG TOKYO_R30_SHORT TOKYO_LAND CMA_LAT CMA_LON CMA_CAT CMA_WIND CMA_PRES HKO_LAT HKO_LON HKO_CAT HKO_WIND HKO_PRES NEWDELHI_LAT NEWDELHI_LON NEWDELHI_GRADE NEWDELHI_WIND NEWDELHI_PRES NEWDELHI_CI NEWDELHI_DP NEWDELHI_POCI REUNION_LAT REUNION_LON REUNION_TYPE REUNION_WIND REUNION_PRES REUNION_TNUM REUNION_CI REUNION_RMW REUNION_R34_NE REUNION_R34_SE REUNION_R34_SW REUNION_R34_NW REUNION_R50_NE REUNION_R50_SE REUNION_R50_SW REUNION_R50_NW REUNION_R64_NE REUNION_R64_SE REUNION_R64_SW REUNION_R64_NW BOM_LAT BOM_LON BOM_TYPE BOM_WIND BOM_PRES BOM_TNUM BOM_CI BOM_RMW BOM_R34_NE BOM_R34_SE BOM_R34_SW BOM_R34_NW BOM_R50_NE BOM_R50_SE BOM_R50_SW BOM_R50_NW BOM_R64_NE BOM_R64_SE BOM_R64_SW BOM_R64_NW BOM_ROCI BOM_POCI BOM_EYE BOM_POS_METHOD BOM_PRES_METHOD NADI_LAT NADI_LON NADI_CAT NADI_WIND NADI_PRES WELLINGTON_LAT WELLINGTON_LON WELLINGTON_WIND WELLINGTON_PRES DS824_LAT DS824_LON DS824_STAGE DS824_WIND DS824_PRES TD9636_LAT TD9636_LON TD9636_STAGE TD9636_WIND TD9636_PRES TD9635_LAT TD9635_LON TD9635_WIND TD9635_PRES TD9635_ROCI NEUMANN_LAT NEUMANN_LON NEUMANN_CLASS NEUMANN_WIND NEUMANN_PRES MLC_LAT MLC_LON MLC_CLASS MLC_WIND MLC_PRES USA_GUST BOM_GUST BOM_GUST_PER REUNION_GUST REUNION_GUST_PER USA_SEAHGT USA_SEARAD_NE USA_SEARAD_SE USA_SEARAD_SW USA_SEARAD_NW STORM_SPEED STORM_DIR
1969256N19156 1969 76 WP MM NOT_NAMED 1969-09-13 00:00:00 TS 19.0000 155.800 main 2358 2315 __O___________ -1 19.0000 155.800 0 1010 10 301
1969256N19156 1969 76 WP MM NOT_NAMED 1969-09-13 03:00:00 TS 19.2552 155.350 main 2306 2257 __P___________ -1 19.2552 155.350 0 1009 10 300
1969256N19156 1969 76 WP MM NOT_NAMED 1969-09-13 06:00:00 TS 19.5000 154.900 main 2257 2214 __O___________ -1 19.5000 154.900 0 1008 10 299
1969256N19156 1969 76 WP MM NOT_NAMED 1969-09-13 09:00:00 TS 19.7349 154.450 main 2208 2156 __P___________ -1 19.7349 154.450 0 1007 10 301
1969256N19156 1969 76 WP MM NOT_NAMED 1969-09-13 12:00:00 TS 20.0000 154.000 main 2156 2105 __O___________ -1 20.0000 154.000 0 1006 10 306
1969256N19156 1969 76 WP MM NOT_NAMED 1969-09-13 15:00:00 TS 20.3499 153.550 main 2105 2038 __P___________ -1 20.3499 153.550 0 1005 11 310
1969256N19156 1969 76 WP MM NOT_NAMED 1969-09-13 18:00:00 TS 20.7000 153.100 main 2038 1987 __O___________ -1 20.7000 153.100 0 1004 11 306
1969256N19156 1969 76 WP MM NOT_NAMED 1969-09-13 21:00:00 TS 20.9800 152.635 main 1981 1939 __P___________ -1 20.9800 152.635 0 1004 10 300
1969256N19156 1969 76 WP MM NOT_NAMED 1969-09-14 00:00:00 TS 21.2000 152.180 main 1939 1898 __OO__________ -1 21.2000 152.200 1 29 1004 21.2000 152.100 TD 25 1004 9 298
1969256N19156 1969 76 WP MM NOT_NAMED 1969-09-14 03:00:00 TS 21.3858 151.825 main 1898 1862 __PP__________ -1 21.3573 151.835 1 29 1004 21.4426 151.805 TD 25 1004 7 301
1969256N19156 1969 76 WP MM NOT_NAMED 1969-09-14 06:00:00 TS 21.5857 151.500 main 1862 1827 __OO__________ -1 21.5000 151.500 1 29 1004 21.7000 151.500 TD 25 1004 8 306
1969256N19156 1969 76 WP MM NOT_NAMED 1969-09-14 09:00:00 TS 21.8386 151.165 main 1827 1776 __PP__________ -1 21.6924 151.157 1 29 1004 21.9849 151.172 TD 25 1004 8 308
1969256N19156 1969 76 WP MM NOT_NAMED 1969-09-14 12:00:00 TS 22.1000 150.800 main 1776 1726 __OO__________ -1 21.9000 150.800 1 29 1004 22.3000 150.800 TD 25 1004 9 306
1969256N19156 1969 76 WP MM NOT_NAMED 1969-09-14 15:00:00 TS 22.3712 150.386 main 1726 1685 __PP__________ -1 22.1000 150.407 1 29 1004 22.6425 150.365 TD 25 1004 10 305
1969256N19156 1969 76 WP MM NOT_NAMED 1969-09-14 18:00:00 TS 22.6500 149.950 main 1676 1630 __OO__________ -1 22.3000 150.000 1 29 1004 23.0000 149.900 TD 25 1005 10 305
1969256N19156 1969 76 WP MM NOT_NAMED 1969-09-14 21:00:00 TS 22.9438 149.503 main 1630 1580 __PP__________ -1 22.4999 149.600 1 29 1004 23.3877 149.405 TD 25 1005 10 305
1969256N19156 1969 76 WP MM NOT_NAMED 1969-09-15 00:00:00 TS 23.2000 149.100 main 1580 1545 __OO__________ -1 22.7000 149.200 1 29 1004 23.7000 149.000 TD 25 1006 8 303
1969256N19156 1969 76 WP MM NOT_NAMED 1969-09-15 03:00:00 TS 23.3649 148.795 main 1545 1524 __PP__________ -1 22.9000 148.785 1 29 1005 23.8298 148.805 TD 25 1006 6 301
1969256N19156 1969 76 WP MM NOT_NAMED 1969-09-15 06:00:00 TS 23.5000 148.550 main 1524 1489 __OO__________ -1 23.1000 148.400 1 29 1006 23.9000 148.700 TD 25 1006 5 305
1969256N19156 1969 76 WP MM NOT_NAMED 1969-09-15 09:00:00 TS 23.6712 148.317 main 1489 1469 __PP__________ -1 23.2998 148.085 1 29 1006 24.0425 148.550 TD 25 1006 5 310
1969256N19156 1969 76 WP MM NOT_NAMED 1969-09-15 12:00:00 TS 23.8500 148.100 main 1460 1440 __OO__________ -1 23.5000 147.800 1 29 1006 24.2000 148.400 TD 25 1006 5 311
1969256N19156 1969 76 WP MM NOT_NAMED 1969-09-15 15:00:00 TS 24.0250 147.867 main 1440 1410 __PP__________ -1 23.6925 147.485 1 29 1006 24.3575 148.250 TD 25 1006 5 310
1969256N19156 1969 76 WP MM NOT_NAMED 1969-09-15 18:00:00 TS 24.2000 147.650 main 1410 1381 __OO__________ -1 23.9000 147.200 1 29 1006 24.5000 148.100 TD 25 1007 5 312
1969256N19156 1969 76 WP MM NOT_NAMED 1969-09-15 21:00:00 TS 24.3712 147.449 main 1376 1361 __PP__________ -1 24.1350 146.955 1 29 1006 24.6075 147.942 TD 25 1007 5 318
1969256N19156 1969 76 WP MM NOT_NAMED 1969-09-16 00:00:00 TS 24.5500 147.300 main 1351 1337 __OO__________ -1 24.4000 146.800 1 29 1006 24.7000 147.800 TD 25 1008 4 330
1969256N19156 1969 76 WP MM NOT_NAMED 1969-09-16 03:00:00 TS 24.7350 147.224 main 1337 1317 __PP__________ -1 24.6774 146.755 1 29 1006 24.7925 147.692 TD 25 1008 4 353
1969256N19156 1969 76 WP MM NOT_NAMED 1969-09-16 06:00:00 TS 24.9429 147.257 main 1322 1303 __OO__________ -1 25.0000 146.800 1 29 1006 24.9000 147.600 TD 25 1008 4 9
1969256N19156 1969 76 WP MM NOT_NAMED 1969-09-16 09:00:00 TS 25.1558 147.297 main 1294 1284 __PP__________ -1 25.3825 146.890 1 24 1006 25.0425 147.500 TD 25 1008 4 9
1969256N19156 1969 76 WP MM NOT_NAMED 1969-09-16 12:00:00 TS 25.3200 147.320 main 1284 1275 __OO__________ -1 25.8000 147.000 0 19 1006 25.2000 147.400 TD 25 1008 2 2
1969256N19156 1969 76 WP MM NOT_NAMED 1969-09-16 15:00:00 NR 25.3575 147.300 main 1275 1260 ___P__________ -1 0 25.3575 147.300 TD 25 1008 2 328
1969256N19156 1969 76 WP MM NOT_NAMED 1969-09-16 18:00:00 NR 25.5000 147.200 main 1260 1245 ___O__________ -1 25.5000 147.200 TD 25 1008 3 324
1969256N19156 1969 76 WP MM NOT_NAMED 1969-09-16 21:00:00 NR 25.6100 147.100 main 1245 1230 ___P__________ -1 25.6100 147.100 TD 25 1008 3 318
1969256N19156 1969 76 WP MM NOT_NAMED 1969-09-17 00:00:00 NR 25.7000 147.000 main 1230 ___O__________ -1 25.7000 147.000 TD 25 1008 3 316

Digital Typhoon Data and Search

About IBTrACS Database

This database is a web-friendly format of International Best Track Archive for Climate Stewardship (IBTrACS), a global best track data archive curated by NOAA dating back to 1842.

Updated: 2021-10-21